Portada
METAR-TAF:

METAR-TAF

Aeroports :

Aeroport Internacional de Tozeur

Tozeur, Tunísia

latitud: 33-55N, longitud: 008-06E, altitud: 87 m

Observació

L'informe es va fer fa 41 minuts, a les 11:00 UTC
Vent 22 kt del Est
Temperatura 37°C
Humitat 25%
Pressió 1014 hPa
Visibilitat: 8000 m

METAR: DTTZ 171100Z 08022KT 8000 NSC 37/14 Q1014 NOSIG

Hora: 12:41 (11:41 UTC)

Pronòstic

L'informe es va fer fa 37 minuts, a les 11:04 UTC
Pronòstic vàlid del 17 a les 12 UTC al 18 a les 12 UTC
Vent 15 kt del Est amb ràfegues de 27 kt
Visibilitat: 8000 m

TAF: DTTZ 171104Z 1712/1812 09015G27KT 8000 NSC

Observacions i pronòstics meteorològics de més de 4000 aeroports (METAR i TAF).

Les estacions disponibles són els punts grocs i vermells al mapa.

Posi el ratolí al punt desitjat per veure el nom de l'estació.

Feu clic per veure les observacions i els pronòstics meteorològics.

Per canviar el mapa: feu clic els botons verds amb una creu de color negre per apropar; al botó verd amb un guió per allunyar la imatge; o en les fletxes verdes per a mapes adjacents.


METAR-TAF: